Time;durP1;ratioP1;P1;durP2;ratioP2;P2;SDS_P1;SDS_P2;PMS_P1;PMS_P2;Temp;Humidity;BMP_temperature;BMP_pressure;BME280_temperature;BME280_humidity;BME280_pressure;Samples;Min_cycle;Max_cycle;Signal;HPM_P1;HPM_P2
2022/01/03 00:01:19;;;;;;;4.30;2.27;;;;;;;1.14;75.84;98702.94;1711725;82;21373;-52
2022/01/03 00:03:47;;;;;;;3.00;1.50;;;;;;;1.15;75.91;98687.45;1711804;81;21112;-52
2022/01/03 00:06:15;;;;;;;3.27;0.93;;;;;;;1.19;76.06;98693.11;1699264;82;21779;-52
2022/01/03 00:08:42;;;;;;;6.23;0.93;;;;;;;1.20;76.30;98687.31;1725176;82;21651;-52
2022/01/03 00:11:11;;;;;;;1.40;0.80;;;;;;;1.22;76.55;98684.17;1714118;82;21084;-53
2022/01/03 00:13:42;;;;;;;1.27;0.80;;;;;;;1.22;76.79;98673.13;1714318;82;21475;-52
2022/01/03 00:16:09;;;;;;;1.33;0.70;;;;;;;1.24;77.11;98669.98;1717275;82;20887;-49
2022/01/03 00:18:35;;;;;;;1.30;0.70;;;;;;;1.25;77.42;98679.67;1712687;82;21166;-53
2022/01/03 00:21:06;;;;;;;1.00;0.70;;;;;;;1.26;77.72;98671.27;1716551;82;21551;-53
2022/01/03 00:23:33;;;;;;;1.13;0.70;;;;;;;1.26;78.02;98641.65;1712116;82;21048;-54
2022/01/03 00:26:01;;;;;;;1.93;0.70;;;;;;;1.28;78.40;98641.12;1720019;81;21139;-54
2022/01/03 00:28:36;;;;;;;1.10;0.80;;;;;;;1.28;78.72;98626.55;1738890;81;21052;-53
2022/01/03 00:31:03;;;;;;;1.27;0.90;;;;;;;1.28;79.07;98627.87;1740442;81;24840;-54
2022/01/03 00:33:31;;;;;;;1.60;0.80;;;;;;;1.26;79.35;98617.79;1742514;81;21436;-54
2022/01/03 00:36:03;;;;;;;2.60;0.80;;;;;;;1.29;79.67;98620.78;1745218;79;21049;-52
2022/01/03 00:38:33;;;;;;;1.13;0.80;;;;;;;1.29;79.94;98611.05;1740300;81;21044;-53
2022/01/03 00:41:00;;;;;;;1.50;0.80;;;;;;;1.29;80.25;98600.45;1741309;81;21159;-54
2022/01/03 00:43:27;;;;;;;1.00;0.70;;;;;;;1.30;80.58;98585.41;1740867;81;21807;-53
2022/01/03 00:45:54;;;;;;;1.40;0.90;;;;;;;1.31;80.78;98577.42;1739764;81;21199;-54
2022/01/03 00:48:20;;;;;;;1.33;0.70;;;;;;;1.33;80.99;98565.00;1742078;81;20981;-55
2022/01/03 00:50:48;;;;;;;1.23;0.70;;;;;;;1.37;81.28;98548.52;1739809;81;21083;-55
2022/01/03 00:53:14;;;;;;;3.23;0.80;;;;;;;1.40;81.51;98536.50;1742424;81;21111;-54
2022/01/03 00:56:04;;;;;;;2.23;1.10;;;;;;;1.43;81.67;98524.03;1742974;81;21157;-55
2022/01/03 00:58:37;;;;;;;1.63;0.80;;;;;;;1.44;81.87;98524.45;1738810;81;20997;-53
2022/01/03 01:01:05;;;;;;;1.43;0.80;;;;;;;1.43;82.13;98531.98;1738457;81;21104;-53
2022/01/03 01:03:36;;;;;;;2.37;0.93;;;;;;;1.45;82.38;98517.33;1741968;81;21056;-53
2022/01/03 01:06:07;;;;;;;1.87;0.93;;;;;;;1.44;82.57;98485.13;1742335;81;21084;-52
2022/01/03 01:08:35;;;;;;;1.20;0.80;;;;;;;1.44;82.78;98481.16;1740867;81;22705;-53
2022/01/03 01:11:04;;;;;;;2.47;0.80;;;;;;;1.45;83.01;98503.61;1742643;81;21108;-53
2022/01/03 01:13:35;;;;;;;1.87;0.97;;;;;;;1.46;83.13;98501.38;1739231;81;21152;-53
2022/01/03 01:16:06;;;;;;;1.53;0.90;;;;;;;1.49;83.28;98526.94;1737523;81;21634;-53
2022/01/03 01:18:36;;;;;;;1.80;0.80;;;;;;;1.51;83.45;98472.95;1737880;81;21108;-54
2022/01/03 01:21:05;;;;;;;2.17;0.80;;;;;;;1.54;83.59;98461.35;1737961;81;21585;-55
2022/01/03 01:23:32;;;;;;;1.60;0.90;;;;;;;1.57;83.72;98449.78;1736472;81;21343;-55
2022/01/03 01:28:46;;;;;;;2.23;1.00;;;;;;;1.61;83.99;98442.16;1737765;81;21076;-55
2022/01/03 01:31:18;;;;;;;1.10;0.87;;;;;;;1.63;84.11;98442.48;1734416;81;21139;-56
2022/01/03 01:33:44;;;;;;;1.80;1.00;;;;;;;1.66;84.24;98425.61;1740222;81;21013;-58
2022/01/03 01:36:12;;;;;;;2.20;1.10;;;;;;;1.68;84.38;98418.02;1738182;81;21450;-54
2022/01/03 01:38:39;;;;;;;1.07;0.87;;;;;;;1.70;84.49;98425.94;1743031;81;21004;-57
2022/01/03 01:41:06;;;;;;;1.87;1.20;;;;;;;1.73;84.62;98424.48;1739454;81;21119;-57
2022/01/03 01:43:40;;;;;;;2.70;1.23;;;;;;;1.75;84.74;98411.58;1737214;81;21092;-54
2022/01/03 01:46:12;;;;;;;1.50;1.10;;;;;;;1.78;84.82;98417.25;1741435;81;22295;-54
2022/01/03 01:48:43;;;;;;;1.40;1.00;;;;;;;1.81;84.91;98406.52;1746731;81;20972;-55
2022/01/03 01:51:13;;;;;;;1.30;0.93;;;;;;;1.83;85.03;98394.07;1740672;81;21076;-54
2022/01/03 01:53:44;;;;;;;2.37;1.10;;;;;;;1.87;85.10;98395.72;1743613;81;21733;-56
2022/01/03 01:56:26;;;;;;;2.70;1.30;;;;;;;1.87;85.16;98385.94;1741088;81;21052;-55
2022/01/03 01:59:21;;;;;;;2.87;1.20;;;;;;;1.88;85.22;98377.52;1735369;81;21311;-57
2022/01/03 02:02:04;;;;;;;1.32;1.02;;;;;;;1.88;85.32;98375.73;1742587;81;20933;-57
2022/01/03 02:05:03;;;;;;;2.63;1.20;;;;;;;1.90;85.32;98378.34;1746691;81;20969;-54
2022/01/03 02:07:47;;;;;;;1.37;0.90;;;;;;;1.89;85.40;98370.84;1739571;81;21290;-55
2022/01/03 02:10:15;;;;;;;2.60;1.10;;;;;;;1.91;85.49;98364.16;1744301;81;21428;-56
2022/01/03 02:12:49;;;;;;;1.97;1.30;;;;;;;1.93;85.57;98366.76;1739388;81;21130;-55
2022/01/03 02:15:18;;;;;;;2.07;1.07;;;;;;;1.96;85.68;98360.02;1746281;81;20878;-58
2022/01/03 02:17:47;;;;;;;1.27;0.93;;;;;;;1.97;85.69;98350.66;1744002;81;20953;-57
2022/01/03 02:20:21;;;;;;;2.03;0.93;;;;;;;2.00;85.74;98338.61;1738780;81;21747;-56
2022/01/03 02:22:48;;;;;;;1.60;1.00;;;;;;;2.02;85.77;98331.47;1739917;81;21009;-54
2022/01/03 02:25:18;;;;;;;2.60;1.00;;;;;;;2.04;85.80;98333.58;1742325;81;21900;-55
2022/01/03 02:30:14;;;;;;;2.50;1.40;;;;;;;2.10;85.89;98342.67;1849388;75;26428;-56
2022/01/03 02:32:42;;;;;;;2.37;1.23;;;;;;;2.09;85.95;98336.09;1796337;78;20858;-56
2022/01/03 02:35:09;;;;;;;2.00;1.33;;;;;;;2.11;86.07;98329.81;1810749;77;22104;-53
2022/01/03 02:37:35;;;;;;;2.83;1.43;;;;;;;2.12;86.07;98324.91;1809654;77;20878;-57
2022/01/03 02:40:02;;;;;;;2.57;1.40;;;;;;;2.15;86.07;98311.50;1817080;77;20914;-54
2022/01/03 02:42:29;;;;;;;2.50;1.40;;;;;;;2.16;86.09;98303.95;1807900;77;20906;-54
2022/01/03 02:45:06;;;;;;;2.47;1.47;;;;;;;2.18;86.15;98291.95;1781801;77;20993;-56
2022/01/03 02:47:33;;;;;;;4.70;1.53;;;;;;;2.20;86.22;98278.16;1768479;78;22103;-53
2022/01/03 02:50:00;;;;;;;2.73;1.40;;;;;;;2.23;86.28;98285.53;1771602;78;20968;-53
2022/01/03 02:52:26;;;;;;;2.10;1.20;;;;;;;2.25;86.36;98277.05;1773485;78;21243;-54
2022/01/03 02:54:53;;;;;;;3.37;1.50;;;;;;;2.27;86.40;98250.45;1773415;78;21369;-55
2022/01/03 02:57:23;;;;;;;2.70;1.53;;;;;;;2.29;86.42;98239.31;1767114;78;21133;-55
2022/01/03 02:59:56;;;;;;;1.80;1.30;;;;;;;2.31;86.50;98223.30;1755786;80;21145;-56
2022/01/03 03:02:24;;;;;;;1.87;1.17;;;;;;;2.33;86.52;98216.14;1737003;81;21044;-53
2022/01/03 03:04:56;;;;;;;2.23;1.30;;;;;;;2.34;86.60;98196.64;1736109;81;21060;-55
2022/01/03 03:07:25;;;;;;;2.63;1.30;;;;;;;2.35;86.68;98188.61;1743917;81;20926;-56
2022/01/03 03:09:51;;;;;;;3.17;1.50;;;;;;;2.38;86.74;98200.91;1740917;81;21443;-54
2022/01/03 03:12:18;;;;;;;3.73;1.73;;;;;;;2.40;86.80;98230.44;1735716;81;21128;-57
2022/01/03 03:14:44;;;;;;;2.40;1.30;;;;;;;2.45;86.93;98247.08;1742172;81;20965;-52
2022/01/03 03:17:11;;;;;;;2.13;1.40;;;;;;;2.51;86.98;98234.01;1738741;81;20937;-55
2022/01/03 03:20:00;;;;;;;1.70;1.40;;;;;;;2.55;86.95;98230.31;1738735;81;21072;-56
2022/01/03 03:22:29;;;;;;;2.20;1.30;;;;;;;2.59;86.97;98215.51;1738814;81;20981;-55
2022/01/03 03:25:15;;;;;;;3.10;1.80;;;;;;;2.61;86.95;98212.33;1740643;81;22129;-58
2022/01/03 03:27:47;;;;;;;2.63;1.70;;;;;;;2.61;86.88;98206.16;1738484;81;20965;-55
2022/01/03 03:30:22;;;;;;;2.20;1.30;;;;;;;2.62;86.92;98208.75;1744561;81;21011;-58
2022/01/03 03:32:51;;;;;;;3.37;1.57;;;;;;;2.64;87.00;98212.65;1737737;81;21529;-58
2022/01/03 03:35:18;;;;;;;2.70;1.70;;;;;;;2.68;87.10;98214.27;1751883;80;20964;-56
2022/01/03 03:37:45;;;;;;;2.37;1.77;;;;;;;2.73;87.23;98202.11;1764245;80;21090;-57
2022/01/03 03:42:04;;;;;;;1.80;1.50;;;;;;;2.82;87.39;98183.99;1791534;79;28481;-57
2022/01/03 03:44:31;;;;;;;4.40;1.70;;;;;;;2.80;87.53;98191.19;1768228;80;20891;-57
2022/01/03 03:46:59;;;;;;;2.63;1.80;;;;;;;2.84;87.56;98194.10;1761900;80;21508;-59
2022/01/03 03:49:25;;;;;;;4.87;1.80;;;;;;;2.87;87.52;98195.31;1768039;80;21424;-55
2022/01/03 03:51:52;;;;;;;3.90;1.63;;;;;;;2.89;87.61;98184.63;1769004;80;22311;-56
2022/01/03 03:54:18;;;;;;;2.37;1.70;;;;;;;2.92;87.71;98181.81;1766055;80;21037;-56
2022/01/03 03:56:45;;;;;;;2.20;1.63;;;;;;;2.96;87.77;98187.42;1766767;80;21088;-57
2022/01/03 03:59:11;;;;;;;3.03;1.77;;;;;;;3.00;87.79;98179.70;1704711;81;21151;-59
2022/01/03 04:01:39;;;;;;;2.00;1.43;;;;;;;3.06;87.96;98170.62;1704169;83;21037;-56
2022/01/03 04:04:06;;;;;;;2.13;1.50;;;;;;;3.10;87.91;98166.88;1732300;80;21484;-56
2022/01/03 04:06:32;;;;;;;1.80;1.30;;;;;;;3.15;87.93;98159.59;1688755;82;21240;-56
2022/01/03 04:08:59;;;;;;;4.57;1.53;;;;;;;3.18;87.93;98154.98;1712111;82;21124;-59
2022/01/03 04:11:26;;;;;;;2.30;1.40;;;;;;;3.22;87.95;98130.00;1724653;81;21889;-54
2022/01/03 04:13:55;;;;;;;3.73;2.00;;;;;;;3.24;87.97;98126.78;1733904;81;20940;-56
2022/01/03 04:16:21;;;;;;;3.43;1.70;;;;;;;3.26;87.98;98121.40;1732707;81;21037;-57
2022/01/03 04:18:48;;;;;;;3.10;1.80;;;;;;;3.28;87.94;98119.54;1735477;80;21038;-59
2022/01/03 04:21:15;;;;;;;2.43;1.57;;;;;;;3.29;87.89;98110.17;1708244;82;21146;-56
2022/01/03 04:23:41;;;;;;;1.83;1.40;;;;;;;3.28;87.84;98103.59;1707657;83;22784;-58
2022/01/03 04:26:08;;;;;;;3.03;1.63;;;;;;;3.28;87.83;98095.14;1718252;81;20918;-57
2022/01/03 04:28:36;;;;;;;2.57;1.17;;;;;;;3.29;87.88;98104.85;1736813;81;21062;-56
2022/01/03 04:31:02;;;;;;;3.20;1.63;;;;;;;3.30;87.92;98098.61;1732852;81;21054;-56
2022/01/03 04:33:30;;;;;;;3.60;1.43;;;;;;;3.30;87.88;98103.06;1739953;81;20958;-58
2022/01/03 04:35:57;;;;;;;2.60;1.83;;;;;;;3.30;87.88;98097.74;1736574;81;21999;-57
2022/01/03 04:38:24;;;;;;;2.13;1.73;;;;;;;3.31;87.98;98100.34;1737817;81;21046;-57
2022/01/03 04:40:50;;;;;;;4.20;1.20;;;;;;;3.34;88.07;98099.31;1727748;81;21046;-56
2022/01/03 04:43:17;;;;;;;2.60;1.70;;;;;;;3.34;88.06;98089.53;1754112;80;21497;-57
2022/01/03 04:45:43;;;;;;;3.43;1.60;;;;;;;3.36;88.11;98090.34;1757119;80;21105;-58
2022/01/03 04:48:10;;;;;;;2.43;1.10;;;;;;;3.40;88.17;98077.28;1755546;79;22218;-58
2022/01/03 04:50:36;;;;;;;2.73;1.20;;;;;;;3.44;88.19;98067.38;1753997;79;20970;-56
2022/01/03 04:53:03;;;;;;;1.97;1.10;;;;;;;3.49;88.17;98061.36;1760443;80;20950;-58
2022/01/03 04:55:30;;;;;;;2.10;1.20;;;;;;;3.52;88.22;98039.95;1751684;80;21563;-55
2022/01/03 04:57:57;;;;;;;2.53;1.47;;;;;;;3.58;88.20;98044.11;1754732;80;21494;-58
2022/01/03 05:00:23;;;;;;;1.70;1.40;;;;;;;3.61;88.13;98051.48;1697979;82;21536;-57
2022/01/03 05:02:50;;;;;;;2.63;1.57;;;;;;;3.62;88.07;98036.39;1756044;80;21748;-57
2022/01/03 05:05:17;;;;;;;3.30;1.50;;;;;;;3.64;88.02;98034.53;1760078;79;20938;-59
2022/01/03 05:07:43;;;;;;;3.70;1.63;;;;;;;3.65;87.90;98037.59;1760534;80;21353;-58
2022/01/03 05:10:11;;;;;;;2.70;1.83;;;;;;;3.65;87.95;98026.95;1758914;80;20965;-59
2022/01/03 05:12:39;;;;;;;2.57;1.50;;;;;;;3.67;87.97;98036.55;1675347;82;21146;-57
2022/01/03 05:15:06;;;;;;;4.53;1.43;;;;;;;3.69;87.98;98024.52;1756807;80;20962;-58
2022/01/03 05:17:34;;;;;;;2.93;1.30;;;;;;;3.72;87.92;98021.72;1757318;80;20939;-58
2022/01/03 05:20:01;;;;;;;2.10;1.50;;;;;;;3.76;87.86;98032.13;1717631;82;20994;-58
2022/01/03 05:22:28;;;;;;;3.33;1.50;;;;;;;3.77;87.86;98029.00;1760565;80;20993;-58
2022/01/03 05:24:54;;;;;;;2.53;2.00;;;;;;;3.79;87.89;98026.67;1692460;82;21091;-58
2022/01/03 05:27:22;;;;;;;3.20;1.70;;;;;;;3.81;87.82;98025.27;1759144;80;20967;-58
2022/01/03 05:29:48;;;;;;;3.00;1.20;;;;;;;3.81;87.75;98034.58;1753227;80;20875;-58
2022/01/03 05:32:15;;;;;;;3.03;1.60;;;;;;;3.82;87.72;98036.78;1740190;80;21511;-57
2022/01/03 05:34:42;;;;;;;4.00;1.20;;;;;;;3.84;87.69;98033.08;1752002;79;21459;-57
2022/01/03 05:37:08;;;;;;;4.90;2.07;;;;;;;3.85;87.71;98032.16;1753966;80;21662;-57
2022/01/03 05:39:36;;;;;;;2.33;1.50;;;;;;;3.87;87.76;98024.09;1749961;80;20951;-61
2022/01/03 05:42:03;;;;;;;2.30;1.10;;;;;;;3.91;87.86;98027.88;1757478;80;22453;-57
2022/01/03 05:44:31;;;;;;;4.57;1.87;;;;;;;3.96;87.87;98031.17;1763954;80;20941;-57
2022/01/03 05:46:58;;;;;;;2.30;1.40;;;;;;;3.99;87.76;98020.38;1768301;80;21028;-57
2022/01/03 05:49:24;;;;;;;2.93;2.10;;;;;;;4.01;87.77;98017.62;1759260;80;21125;-57
2022/01/03 05:51:51;;;;;;;2.70;1.70;;;;;;;4.04;87.75;98018.34;1758604;80;21100;-58
2022/01/03 05:54:18;;;;;;;2.70;1.83;;;;;;;4.06;87.64;98018.27;1761153;80;21081;-58
2022/01/03 05:56:44;;;;;;;4.20;1.90;;;;;;;4.07;87.55;98014.67;1705062;82;21032;-57
2022/01/03 05:59:10;;;;;;;2.00;1.10;;;;;;;4.06;87.54;98003.16;1766587;79;21112;-58
2022/01/03 06:01:38;;;;;;;2.50;1.40;;;;;;;4.07;87.58;98008.88;1761007;80;21091;-58
2022/01/03 06:04:35;;;;;;;6.60;1.43;;;;;;;4.10;87.66;98006.05;1761425;79;21405;-57
2022/01/03 06:07:08;;;;;;;3.10;1.30;;;;;;;4.13;87.76;98011.23;1691448;82;21055;-58
2022/01/03 06:09:46;;;;;;;2.30;1.20;;;;;;;4.21;87.77;98025.95;1763882;79;21393;-57
2022/01/03 06:12:13;;;;;;;2.07;1.00;;;;;;;4.26;87.66;98021.25;1766019;80;20942;-57
2022/01/03 06:14:44;;;;;;;2.80;1.47;;;;;;;4.26;87.64;98020.78;1764599;80;21803;-58
2022/01/03 06:17:11;;;;;;;3.30;1.57;;;;;;;4.28;87.64;98022.91;1763101;80;21581;-58
2022/01/03 06:19:38;;;;;;;2.03;1.07;;;;;;;4.29;87.60;98019.31;1764328;80;21065;-59
2022/01/03 06:22:07;;;;;;;1.60;1.03;;;;;;;4.33;87.58;98012.91;1766788;80;21103;-58
2022/01/03 06:24:33;;;;;;;3.50;1.30;;;;;;;4.36;87.59;98015.86;1736752;80;21045;-58
2022/01/03 06:27:01;;;;;;;2.07;1.23;;;;;;;4.37;87.61;98010.92;1765279;80;21123;-59
2022/01/03 06:29:28;;;;;;;2.67;1.10;;;;;;;4.41;87.66;98016.03;1758235;80;21080;-58
2022/01/03 06:31:56;;;;;;;2.90;1.37;;;;;;;4.45;87.62;98010.92;1760774;80;20937;-59
2022/01/03 06:34:23;;;;;;;2.37;1.00;;;;;;;4.50;87.63;98008.91;1696248;82;21141;-58
2022/01/03 06:36:50;;;;;;;2.47;1.53;;;;;;;4.56;87.62;98002.39;1764762;80;21049;-58
2022/01/03 06:39:16;;;;;;;1.70;1.30;;;;;;;4.61;87.54;98007.00;1723606;80;21804;-58
2022/01/03 06:41:44;;;;;;;4.20;1.47;;;;;;;4.62;87.51;98007.39;1753741;80;21020;-59
2022/01/03 06:44:11;;;;;;;4.23;1.30;;;;;;;4.63;87.47;98012.25;1752562;81;20970;-58
2022/01/03 06:46:38;;;;;;;5.73;1.40;;;;;;;4.65;87.41;98007.71;1753222;81;21054;-58
2022/01/03 06:49:06;;;;;;;4.17;1.23;;;;;;;4.66;87.41;98012.97;1750609;81;21033;-58
2022/01/03 06:51:36;;;;;;;2.57;0.90;;;;;;;4.68;87.44;98008.39;1747187;81;21693;-57
2022/01/03 06:54:05;;;;;;;2.43;1.20;;;;;;;4.71;87.50;98006.91;1754954;81;21050;-58
2022/01/03 06:56:33;;;;;;;3.63;1.50;;;;;;;4.75;87.46;98008.96;1752467;81;21044;-56
2022/01/03 06:58:59;;;;;;;3.13;1.10;;;;;;;4.80;87.52;98013.09;1752912;80;21049;-57
2022/01/03 07:01:26;;;;;;;4.03;1.10;;;;;;;4.85;87.56;98019.03;1747473;81;21052;-57
2022/01/03 07:03:52;;;;;;;1.77;1.00;;;;;;;4.91;87.54;98021.88;1707745;82;21107;-57
2022/01/03 07:06:18;;;;;;;1.90;1.00;;;;;;;4.97;87.54;98016.20;1754537;81;21029;-58
2022/01/03 07:08:45;;;;;;;2.10;1.10;;;;;;;5.00;87.39;98005.39;1751487;80;21037;-58
2022/01/03 07:11:11;;;;;;;1.90;1.30;;;;;;;5.03;87.30;98011.87;1712252;82;21073;-57
2022/01/03 07:13:46;;;;;;;3.90;0.83;;;;;;;5.06;87.28;98008.19;1708815;82;21042;-58
2022/01/03 07:19:00;;;;;;;3.03;1.00;;;;;;;5.15;87.26;98015.23;1753471;81;21022;-57
2022/01/03 07:21:31;;;;;;;1.47;0.80;;;;;;;5.20;87.19;98006.96;1752179;81;22174;-57
2022/01/03 07:23:57;;;;;;;3.97;1.27;;;;;;;5.24;87.10;98001.86;1750941;81;21048;-58
2022/01/03 07:26:25;;;;;;;1.83;1.00;;;;;;;5.28;87.08;98002.06;1678704;83;21124;-58
2022/01/03 07:28:53;;;;;;;1.40;1.00;;;;;;;5.34;87.06;97999.09;1685491;84;21194;-58
2022/01/03 07:31:19;;;;;;;1.67;0.90;;;;;;;5.38;86.91;97999.77;1681232;83;21506;-58
2022/01/03 07:33:46;;;;;;;1.90;0.83;;;;;;;5.40;86.84;97992.54;1754094;81;21093;-59
2022/01/03 07:36:13;;;;;;;1.70;0.90;;;;;;;5.44;86.68;97992.78;1752079;80;21734;-59
2022/01/03 07:38:39;;;;;;;1.53;0.80;;;;;;;5.48;86.64;97990.30;1755540;81;21627;-59
2022/01/03 07:41:08;;;;;;;1.60;0.90;;;;;;;5.51;86.54;97978.14;1755031;80;22195;-60
2022/01/03 07:43:34;;;;;;;2.17;1.07;;;;;;;5.55;86.50;97973.00;1759683;80;21164;-57
2022/01/03 07:46:00;;;;;;;1.70;1.00;;;;;;;5.59;86.44;97971.90;1763618;79;21066;-57
2022/01/03 07:48:27;;;;;;;1.40;1.13;;;;;;;5.63;86.32;97974.30;1762495;80;21383;-58
2022/01/03 07:50:53;;;;;;;3.87;1.17;;;;;;;5.67;86.21;97966.52;1764637;80;21093;-57
2022/01/03 07:53:19;;;;;;;1.70;1.00;;;;;;;5.71;86.11;97961.38;1761981;79;22208;-58
2022/01/03 07:55:46;;;;;;;1.80;0.90;;;;;;;5.76;86.02;97958.45;1760526;80;21383;-58
2022/01/03 07:58:15;;;;;;;1.93;0.90;;;;;;;5.80;85.89;97957.31;1763252;80;21015;-56
2022/01/03 08:00:41;;;;;;;3.17;1.00;;;;;;;5.84;85.83;97956.68;1768915;80;21155;-58
2022/01/03 08:03:07;;;;;;;3.00;1.13;;;;;;;5.90;85.77;97963.02;1761863;79;21127;-57
2022/01/03 08:05:34;;;;;;;1.33;0.80;;;;;;;5.96;85.63;97955.98;1764411;80;22115;-58
2022/01/03 08:08:00;;;;;;;2.13;1.27;;;;;;;6.03;85.53;97956.91;1758150;80;21088;-59
2022/01/03 08:10:26;;;;;;;2.40;1.00;;;;;;;6.08;85.35;97951.28;1758641;80;21096;-59
2022/01/03 08:12:53;;;;;;;2.43;0.90;;;;;;;6.14;85.25;97955.38;1768248;79;22137;-59
2022/01/03 08:15:19;;;;;;;0.97;0.70;;;;;;;6.17;85.10;97945.39;1763411;80;20979;-59
2022/01/03 08:17:46;;;;;;;1.50;0.90;;;;;;;6.23;85.05;97945.02;1763522;80;22176;-59
2022/01/03 08:20:13;;;;;;;1.93;0.90;;;;;;;6.31;84.95;97945.42;1762882;79;21073;-59
2022/01/03 08:22:41;;;;;;;4.70;0.90;;;;;;;6.38;84.80;97942.77;1762155;80;21023;-58
2022/01/03 08:25:07;;;;;;;1.60;0.90;;;;;;;6.45;84.57;97941.47;1756687;80;21041;-59
2022/01/03 08:27:35;;;;;;;1.27;0.90;;;;;;;6.53;84.35;97932.98;1762303;80;21073;-60
2022/01/03 08:30:04;;;;;;;2.97;0.90;;;;;;;6.59;84.10;97927.73;1759189;79;21076;-58
2022/01/03 08:32:31;;;;;;;2.33;1.17;;;;;;;6.64;83.76;97930.97;1698848;82;21054;-59
2022/01/03 08:34:57;;;;;;;2.20;1.03;;;;;;;6.63;83.48;97923.94;1766733;80;21077;-59
2022/01/03 08:37:24;;;;;;;1.30;0.80;;;;;;;6.63;83.33;97914.58;1696723;82;21122;-59
2022/01/03 08:39:50;;;;;;;1.67;0.80;;;;;;;6.66;83.24;97910.36;1762436;80;21042;-59
2022/01/03 08:42:18;;;;;;;1.13;0.80;;;;;;;6.68;83.17;97911.99;1698352;82;21150;-59
2022/01/03 08:44:45;;;;;;;2.07;0.70;;;;;;;6.72;83.09;97900.14;1739666;81;21744;-59
2022/01/03 08:47:11;;;;;;;1.00;0.87;;;;;;;6.77;83.00;97906.08;1738551;80;21065;-59
2022/01/03 08:49:37;;;;;;;3.77;1.33;;;;;;;6.83;82.87;97897.66;1740032;80;21075;-58
2022/01/03 08:52:05;;;;;;;1.87;1.00;;;;;;;6.88;82.70;97891.19;1739939;80;21137;-59
2022/01/03 08:54:32;;;;;;;2.57;0.80;;;;;;;6.89;82.51;97892.91;1733029;80;22099;-58
2022/01/03 08:56:59;;;;;;;2.33;0.87;;;;;;;6.90;82.27;97891.92;1737751;81;21804;-58
2022/01/03 08:59:26;;;;;;;1.40;0.90;;;;;;;6.92;82.15;97888.68;1738714;81;21080;-59
2022/01/03 09:01:52;;;;;;;1.47;0.80;;;;;;;6.93;82.01;97881.05;1735880;81;21090;-59
2022/01/03 09:04:18;;;;;;;1.70;0.87;;;;;;;6.93;81.93;97880.56;1744256;81;21085;-59
2022/01/03 09:06:45;;;;;;;1.80;1.07;;;;;;;6.97;81.79;97881.24;1738167;81;23361;-59
2022/01/03 09:09:11;;;;;;;3.67;1.07;;;;;;;6.99;81.72;97866.80;1738318;81;21113;-59
2022/01/03 09:11:37;;;;;;;1.87;0.80;;;;;;;7.02;81.62;97863.94;1731196;81;21073;-59
2022/01/03 09:14:03;;;;;;;2.70;0.90;;;;;;;7.03;81.54;97864.32;1743826;81;21054;-58
2022/01/03 09:16:31;;;;;;;4.25;1.90;;;;;;;7.05;81.47;97853.53;1739121;81;21545;-59
2022/01/03 09:18:57;;;;;;;2.43;1.03;;;;;;;7.06;81.33;97848.56;1737812;81;21544;-59
2022/01/03 09:21:23;;;;;;;2.52;1.40;;;;;;;7.07;81.25;97847.09;1740224;81;21101;-59
2022/01/03 09:23:54;;;;;;;1.50;1.10;;;;;;;7.09;81.17;97836.30;1743030;81;21079;-59
2022/01/03 09:29:03;;;;;;;1.77;0.90;;;;;;;7.13;81.01;97836.02;1733157;80;21048;-59
2022/01/03 09:31:35;;;;;;;2.47;1.10;;;;;;;7.13;80.86;97829.81;1742401;81;21899;-59
2022/01/03 09:34:04;;;;;;;3.00;1.00;;;;;;;7.13;80.74;97827.14;1742403;81;21492;-60
2022/01/03 09:36:31;;;;;;;1.40;0.78;;;;;;;7.13;80.69;97827.14;1738408;81;20926;-57
2022/01/03 09:38:58;;;;;;;1.83;1.07;;;;;;;7.13;80.58;97825.33;1738151;81;21091;-57
2022/01/03 09:41:26;;;;;;;2.60;1.70;;;;;;;7.14;80.48;97814.14;1736680;81;21685;-57
2022/01/03 09:44:03;;;;;;;1.80;1.20;;;;;;;7.14;80.46;97816.34;1732665;80;22448;-57
2022/01/03 09:46:38;;;;;;;2.08;1.00;;;;;;;7.16;80.44;97803.70;1723319;81;21143;-60
2022/01/03 09:49:08;;;;;;;2.27;1.00;;;;;;;7.18;80.38;97803.60;1726587;81;21039;-60
2022/01/03 09:51:35;;;;;;;5.30;1.20;;;;;;;7.20;80.28;97800.36;1665558;84;21093;-59
2022/01/03 09:54:10;;;;;;;2.60;1.00;;;;;;;7.21;80.24;97799.41;1680071;84;22315;-59
2022/01/03 09:56:38;;;;;;;3.10;1.02;;;;;;;7.23;80.18;97798.80;1677531;84;21141;-59
2022/01/03 09:59:05;;;;;;;2.00;1.00;;;;;;;7.27;80.14;97793.64;1677616;83;21097;-59
2022/01/03 10:01:33;;;;;;;3.60;1.10;;;;;;;7.31;80.14;97790.30;1678621;83;21069;-59
2022/01/03 10:04:00;;;;;;;3.65;1.10;;;;;;;7.36;80.07;97782.33;1725654;81;21025;-59
2022/01/03 10:06:27;;;;;;;1.85;0.95;;;;;;;7.42;79.99;97781.91;1727879;81;21022;-58
2022/01/03 10:08:54;;;;;;;2.27;1.22;;;;;;;7.46;79.88;97782.09;1686383;81;21912;-58
2022/01/03 10:11:21;;;;;;;3.00;1.10;;;;;;;7.49;79.76;97774.32;1726183;81;21061;-60
2022/01/03 10:13:48;;;;;;;1.55;1.20;;;;;;;7.54;79.71;97773.07;1726915;80;20990;-59
2022/01/03 10:16:15;;;;;;;1.77;1.00;;;;;;;7.60;79.62;97769.11;1730490;80;21049;-59
2022/01/03 10:18:41;;;;;;;1.72;0.93;;;;;;;7.65;79.53;97767.00;1727633;81;21066;-59
2022/01/03 10:21:08;;;;;;;3.05;1.37;;;;;;;7.71;79.40;97757.68;1725460;81;21141;-57
2022/01/03 10:23:34;;;;;;;2.70;1.12;;;;;;;7.76;79.27;97752.86;1726645;81;21011;-60
2022/01/03 10:26:19;;;;;;;2.45;1.32;;;;;;;7.80;79.08;97753.04;1726709;81;21780;-56
2022/01/03 10:28:45;;;;;;;1.98;1.00;;;;;;;7.83;78.86;97748.31;1672335;84;21217;-56
2022/01/03 10:31:19;;;;;;;2.35;1.52;;;;;;;7.85;78.59;97749.55;1684676;84;22024;-58
2022/01/03 10:33:48;;;;;;;3.10;1.15;;;;;;;7.86;78.31;97747.25;1690103;83;21514;-57
2022/01/03 10:36:29;;;;;;;2.58;1.15;;;;;;;7.88;78.15;97749.34;1682285;83;21043;-58
2022/01/03 10:38:57;;;;;;;2.52;1.02;;;;;;;7.89;78.13;97748.39;1724819;81;21057;-57
2022/01/03 10:41:25;;;;;;;2.27;1.02;;;;;;;7.92;77.87;97742.80;1725327;81;21539;-57
2022/01/03 10:43:55;;;;;;;2.80;1.60;;;;;;;7.95;77.77;97749.30;1732706;80;21065;-57
2022/01/03 10:46:31;;;;;;;1.85;1.12;;;;;;;7.97;77.68;97750.05;1733451;80;20972;-58
2022/01/03 10:49:16;;;;;;;1.55;1.00;;;;;;;7.96;77.39;97742.98;1733718;81;20966;-57
2022/01/03 10:51:44;;;;;;;1.20;0.80;;;;;;;7.95;77.27;97735.42;1738432;80;20915;-56
2022/01/03 10:54:16;;;;;;;3.70;0.98;;;;;;;7.97;77.12;97746.03;1734861;81;20993;-58
2022/01/03 10:56:48;;;;;;;1.40;0.88;;;;;;;7.95;76.97;97748.81;1736645;81;20916;-56
2022/01/03 10:59:22;;;;;;;2.25;1.10;;;;;;;7.96;76.90;97744.31;1734682;80;21827;-58
2022/01/03 11:02:03;;;;;;;1.25;0.90;;;;;;;7.96;76.66;97741.16;1733059;81;20974;-56
2022/01/03 11:04:51;;;;;;;3.58;1.07;;;;;;;7.96;76.57;97736.28;1735662;80;21012;-58
2022/01/03 11:13:14;;;;;;;2.80;1.00;;;;;;;7.95;76.08;97729.20;1736106;80;22517;-60
2022/01/03 11:15:53;;;;;;;1.40;0.80;;;;;;;7.94;75.97;97717.62;1736155;80;20915;-58
2022/01/03 11:18:24;;;;;;;5.62;0.90;;;;;;;7.95;75.93;97722.02;1733447;81;20969;-59
2022/01/03 11:21:13;;;;;;;1.80;0.90;;;;;;;7.95;75.79;97710.45;1736747;81;20926;-58
2022/01/03 11:24:00;;;;;;;3.62;0.80;;;;;;;7.92;75.59;97716.01;1681077;83;21068;-57
2022/01/03 11:26:30;;;;;;;1.75;0.80;;;;;;;7.92;75.40;97711.99;1742368;80;21056;-59
2022/01/03 11:28:56;;;;;;;2.20;0.93;;;;;;;7.91;75.25;97724.53;1738372;81;20939;-58
2022/01/03 11:31:23;;;;;;;1.95;0.90;;;;;;;7.93;75.11;97715.05;1740471;81;20882;-59
2022/01/03 11:33:51;;;;;;;1.98;0.90;;;;;;;7.93;74.95;97707.02;1748642;80;21032;-58
2022/01/03 11:36:20;;;;;;;1.40;0.78;;;;;;;7.93;74.76;97694.95;1741124;80;21148;-58
2022/01/03 11:38:47;;;;;;;2.50;0.75;;;;;;;7.93;74.59;97690.45;1734005;80;21479;-58
2022/01/03 11:41:13;;;;;;;0.90;0.60;;;;;;;7.92;74.37;97690.56;1733723;81;21082;-57
2022/01/03 11:43:42;;;;;;;1.35;0.70;;;;;;;7.90;74.38;97691.17;1744823;80;21045;-59
2022/01/03 11:46:09;;;;;;;1.22;0.60;;;;;;;7.90;74.37;97692.52;1749769;80;21066;-58
2022/01/03 11:48:36;;;;;;;2.22;0.70;;;;;;;7.91;74.43;97695.06;1755454;79;20978;-58
2022/01/03 11:51:06;;;;;;;1.22;0.70;;;;;;;7.94;74.36;97694.00;1745985;79;21846;-58
2022/01/03 11:53:36;;;;;;;1.40;0.72;;;;;;;7.94;74.28;97685.96;1754254;79;21075;-58
2022/01/03 11:56:05;;;;;;;0.95;0.68;;;;;;;7.93;74.22;97680.22;1748387;80;21093;-58
2022/01/03 11:58:50;;;;;;;1.57;0.82;;;;;;;7.90;74.21;97693.85;1755732;80;21015;-57
2022/01/03 12:03:59;;;;;;;1.77;0.75;;;;;;;7.87;74.10;97686.88;1751378;80;26757;-58
2022/01/03 12:06:34;;;;;;;1.00;0.68;;;;;;;7.88;74.10;97683.24;1755382;79;21046;-58
2022/01/03 12:09:14;;;;;;;1.57;0.70;;;;;;;7.88;74.11;97698.45;1751881;79;21053;-59
2022/01/03 12:11:53;;;;;;;2.77;0.78;;;;;;;7.88;74.04;97678.36;1716811;82;21077;-58